Terminal Aerodrome Forecast
Issued by NWS

Home | Current Version | Previous Version | Text Only | Print | Product List | Glossary On
Versions: 1 2 3 4 5 6 7 8 9 10 11 12 13 14 15 16 17 18
000
FTUS41 KALY 251738
TAFPSF
TAF
KPSF 251738Z 2518/2618 08012G20KT P6SM VCSH OVC015
     FM252000 08012G20KT 4SM -RA BR OVC012
      TEMPO 2520/2523 2SM -RA BR OVC009
     FM252300 08012G20KT 2SM RA BR OVC008
     FM260700 07009KT 2SM RA BR OVC007
     FM261000 07008KT 3SM -RA BR OVC007
     FM261300 06007KT P6SM OVC015 PROB30 2613/2618 4SM -SHRA OVC007=

USA.gov is the U.S. government's official web portal to all federal, state and local government web resources and services.